Time;durP1;ratioP1;P1;durP2;ratioP2;P2;SDS_P1;SDS_P2;PMS_P1;PMS_P2;Temp;Humidity;BMP_temperature;BMP_pressure;BME280_temperature;BME280_humidity;BME280_pressure;Samples;Min_cycle;Max_cycle;Signal;HPM_P1;HPM_P2
2024/02/09 00:00:16;;;;;;;2.10;1.87;;;2.20;99.90;;;;;;5022324;28;20614;-55
2024/02/09 00:02:44;;;;;;;2.93;1.73;;;2.20;99.90;;;;;;5037722;28;20239;-50
2024/02/09 00:05:12;;;;;;;3.77;1.67;;;2.20;99.90;;;;;;5037490;28;20199;-55
2024/02/09 00:07:39;;;;;;;2.13;1.67;;;2.20;99.90;;;;;;5015337;28;20235;-45
2024/02/09 00:10:07;;;;;;;1.83;1.37;;;2.20;99.90;;;;;;5034952;28;20197;-56
2024/02/09 00:12:35;;;;;;;2.67;1.40;;;2.10;99.90;;;;;;5029072;28;20196;-50
2024/02/09 00:15:06;;;;;;;3.87;1.50;;;2.10;99.90;;;;;;5025893;28;20550;-53
2024/02/09 00:17:35;;;;;;;3.73;1.70;;;2.10;99.90;;;;;;5040881;28;20314;-49
2024/02/09 00:20:07;;;;;;;5.63;1.40;;;2.10;99.90;;;;;;5039983;28;20692;-51
2024/02/09 00:22:34;;;;;;;4.27;1.73;;;2.20;99.90;;;;;;5004898;28;20216;-56
2024/02/09 00:25:04;;;;;;;3.67;1.60;;;2.10;99.90;;;;;;5030103;28;20219;-51
2024/02/09 00:27:31;;;;;;;3.10;1.93;;;2.10;99.90;;;;;;5020716;28;20253;-56
2024/02/09 00:29:58;;;;;;;2.30;2.10;;;2.10;99.90;;;;;;5017405;28;20207;-49
2024/02/09 00:32:26;;;;;;;3.77;2.03;;;2.20;99.90;;;;;;5034018;28;20665;-54
2024/02/09 00:34:54;;;;;;;2.33;2.07;;;2.10;99.90;;;;;;5036222;28;20215;-51
2024/02/09 00:37:22;;;;;;;3.20;2.50;;;2.10;99.90;;;;;;5038556;28;20231;-48
2024/02/09 00:39:48;;;;;;;5.80;3.17;;;2.10;99.90;;;;;;5010097;28;20909;-48
2024/02/09 00:42:15;;;;;;;4.40;2.90;;;2.10;99.90;;;;;;5024625;28;20305;-51
2024/02/09 00:44:44;;;;;;;3.53;2.93;;;2.10;99.90;;;;;;5029215;28;20591;-54
2024/02/09 00:47:10;;;;;;;3.67;3.37;;;2.10;99.90;;;;;;5031268;28;20290;-50
2024/02/09 00:49:41;;;;;;;3.73;3.07;;;2.10;99.90;;;;;;5036934;28;20297;-53
2024/02/09 00:52:10;;;;;;;4.50;3.73;;;2.10;99.90;;;;;;5036964;28;20219;-55
2024/02/09 00:54:38;;;;;;;4.13;3.67;;;2.10;99.90;;;;;;5015082;28;20226;-46
2024/02/09 00:57:05;;;;;;;4.83;3.70;;;2.10;99.90;;;;;;5028988;28;20216;-54
2024/02/09 00:59:36;;;;;;;3.27;3.00;;;2.00;99.90;;;;;;5032055;28;20240;-50
2024/02/09 01:02:03;;;;;;;7.77;3.43;;;2.00;99.90;;;;;;5031066;28;20584;-54
2024/02/09 01:04:30;;;;;;;6.00;3.00;;;2.10;99.90;;;;;;5040136;28;20328;-49
2024/02/09 01:06:58;;;;;;;4.53;2.90;;;2.10;99.90;;;;;;5039003;28;20191;-54
2024/02/09 01:09:27;;;;;;;3.53;3.23;;;2.00;99.90;;;;;;5037523;28;20963;-48
2024/02/09 01:11:55;;;;;;;4.57;3.30;;;2.10;99.90;;;;;;5012246;28;20223;-51
2024/02/09 02:44:50;;;;;;;2.87;2.40;;;1.70;99.90;;;;;;5020300;28;20218;-55
2024/02/09 02:47:18;;;;;;;3.17;2.93;;;1.70;99.90;;;;;;5032929;28;20831;-52
2024/02/09 03:06:13;;;;;;;2.90;2.60;;;1.70;99.90;;;;;;5031372;28;21032;-47
2024/02/09 03:08:40;;;;;;;2.97;2.73;;;1.70;99.90;;;;;;5033363;28;20265;-47
2024/02/09 03:11:07;;;;;;;3.97;2.70;;;1.70;99.90;;;;;;5036144;28;20195;-55
2024/02/09 03:13:34;;;;;;;3.40;2.93;;;1.70;99.90;;;;;;5041314;28;20215;-49
2024/02/09 03:16:01;;;;;;;3.80;2.80;;;1.70;99.90;;;;;;5026393;28;20207;-57
2024/02/09 03:18:29;;;;;;;4.63;3.43;;;1.70;99.90;;;;;;5031538;28;20191;-49
2024/02/09 03:20:58;;;;;;;3.50;2.83;;;1.70;99.90;;;;;;5039401;28;20235;-55
2024/02/09 03:23:26;;;;;;;3.30;2.87;;;1.70;99.90;;;;;;5031842;28;20852;-50
2024/02/09 03:25:54;;;;;;;3.70;2.80;;;1.60;99.90;;;;;;5040300;28;20208;-55
2024/02/09 03:28:21;;;;;;;3.37;2.93;;;1.60;99.90;;;;;;5039008;28;20203;-50
2024/02/09 03:30:48;;;;;;;3.33;3.03;;;1.60;99.90;;;;;;5042388;28;20399;-50
2024/02/09 03:33:15;;;;;;;3.47;2.53;;;1.60;99.90;;;;;;5014825;28;20219;-50
2024/02/09 03:35:43;;;;;;;4.13;3.30;;;1.60;99.90;;;;;;5042171;28;20199;-49
2024/02/09 03:38:12;;;;;;;3.20;2.43;;;1.60;99.90;;;;;;5038150;28;20207;-53
2024/02/09 03:40:39;;;;;;;4.30;3.60;;;1.60;99.90;;;;;;5037550;28;20268;-52
2024/02/09 03:43:08;;;;;;;2.93;2.73;;;1.60;99.90;;;;;;5041942;28;20266;-57
2024/02/09 03:45:34;;;;;;;3.10;2.80;;;1.60;99.90;;;;;;5040873;28;20195;-50
2024/02/09 03:48:03;;;;;;;3.47;2.90;;;1.60;99.90;;;;;;5008607;28;20280;-56
2024/02/09 03:50:34;;;;;;;3.27;2.80;;;1.50;99.90;;;;;;5039130;28;20211;-49
2024/02/09 03:53:02;;;;;;;2.60;2.40;;;1.50;99.90;;;;;;5031805;28;20302;-57
2024/02/09 03:55:29;;;;;;;2.60;2.40;;;1.60;99.90;;;;;;5032323;28;20198;-53
2024/02/09 03:57:57;;;;;;;3.73;2.93;;;1.50;99.90;;;;;;5032159;28;20314;-53
2024/02/09 04:00:24;;;;;;;3.30;3.00;;;1.50;99.90;;;;;;5038362;28;20195;-48
2024/02/09 04:02:50;;;;;;;3.40;2.83;;;1.50;99.90;;;;;;5038937;28;20207;-55
2024/02/09 04:05:17;;;;;;;3.60;3.30;;;1.50;99.90;;;;;;5017773;28;20207;-50
2024/02/09 04:07:44;;;;;;;4.37;2.80;;;1.50;99.90;;;;;;5037675;28;20596;-51
2024/02/09 04:10:13;;;;;;;4.67;2.80;;;1.50;99.90;;;;;;5039378;28;21019;-50
2024/02/09 04:12:40;;;;;;;3.70;3.13;;;1.50;99.90;;;;;;5035725;28;20285;-47
2024/02/09 04:15:07;;;;;;;3.13;2.83;;;1.50;99.90;;;;;;5024919;28;20262;-57
2024/02/09 04:17:34;;;;;;;4.00;3.23;;;1.50;99.90;;;;;;5040541;28;20256;-51
2024/02/09 04:20:00;;;;;;;2.93;2.73;;;1.50;99.90;;;;;;5014031;28;20225;-54
2024/02/09 04:22:28;;;;;;;2.97;2.77;;;1.50;99.90;;;;;;5036933;28;20207;-53
2024/02/09 04:24:54;;;;;;;4.17;2.93;;;1.50;99.90;;;;;;5033312;28;20227;-55
2024/02/09 04:27:23;;;;;;;2.93;2.37;;;1.50;99.90;;;;;;5035276;28;20188;-52
2024/02/09 04:29:50;;;;;;;3.20;2.80;;;1.50;99.90;;;;;;5029927;28;20208;-52
2024/02/09 04:32:17;;;;;;;2.97;2.47;;;1.50;99.90;;;;;;5037615;28;20285;-53
2024/02/09 04:34:44;;;;;;;2.70;2.50;;;1.50;99.90;;;;;;5013675;28;20368;-49
2024/02/09 04:37:12;;;;;;;3.60;2.67;;;1.40;99.90;;;;;;5031036;28;20191;-50
2024/02/09 04:39:39;;;;;;;3.40;3.10;;;1.40;99.90;;;;;;5029317;28;20569;-52
2024/02/09 04:42:06;;;;;;;4.30;2.90;;;1.50;99.90;;;;;;5033488;28;20203;-56
2024/02/09 04:44:35;;;;;;;3.10;2.80;;;1.50;99.90;;;;;;5028339;28;20299;-53
2024/02/09 04:47:01;;;;;;;2.73;2.40;;;1.50;99.90;;;;;;5031496;28;20557;-56
2024/02/09 04:49:28;;;;;;;2.93;2.63;;;1.40;99.90;;;;;;5013679;28;20215;-50
2024/02/09 04:51:55;;;;;;;2.60;2.30;;;1.50;99.90;;;;;;5040521;28;20441;-55
2024/02/09 04:54:22;;;;;;;3.37;3.07;;;1.40;99.90;;;;;;5030747;28;20227;-53
2024/02/09 04:56:49;;;;;;;3.27;2.97;;;1.40;99.90;;;;;;5041348;28;20519;-51
2024/02/09 04:59:16;;;;;;;3.87;2.67;;;1.40;99.90;;;;;;5028567;28;20211;-52
2024/02/09 05:01:44;;;;;;;3.27;2.43;;;1.40;99.90;;;;;;5035358;28;20690;-49
2024/02/09 05:04:11;;;;;;;2.47;2.27;;;1.40;99.90;;;;;;5028559;28;20223;-58
2024/02/09 05:06:39;;;;;;;2.57;2.37;;;1.40;99.90;;;;;;5012736;28;20309;-55
2024/02/09 05:09:09;;;;;;;3.37;2.70;;;1.40;99.90;;;;;;5038140;28;20253;-51
2024/02/09 05:11:37;;;;;;;2.50;2.30;;;1.40;99.90;;;;;;5026254;28;20206;-58
2024/02/09 05:14:05;;;;;;;2.33;2.10;;;1.40;99.90;;;;;;5036092;28;20286;-54
2024/02/09 05:16:33;;;;;;;3.10;2.77;;;1.40;99.90;;;;;;5030183;28;20196;-54
2024/02/09 05:19:01;;;;;;;2.60;2.33;;;1.40;99.90;;;;;;5034331;28;21002;-47
2024/02/09 05:21:29;;;;;;;2.37;2.20;;;1.40;99.90;;;;;;5007718;28;20824;-49
2024/02/09 05:23:56;;;;;;;2.60;2.40;;;1.40;99.90;;;;;;5038911;28;20227;-50
2024/02/09 05:26:23;;;;;;;2.20;2.00;;;1.40;99.90;;;;;;5022629;28;20222;-52
2024/02/09 05:28:51;;;;;;;2.10;1.90;;;1.40;99.90;;;;;;5037024;28;20207;-52
2024/02/09 05:31:21;;;;;;;2.23;2.00;;;1.40;99.90;;;;;;5026040;28;20286;-51
2024/02/09 05:33:48;;;;;;;2.30;1.97;;;1.40;99.90;;;;;;5038301;28;20277;-49
2024/02/09 05:36:23;;;;;;;2.13;2.00;;;1.40;99.90;;;;;;5012067;28;20192;-56
2024/02/09 05:38:52;;;;;;;3.10;2.17;;;1.40;99.90;;;;;;5022838;28;20205;-49
2024/02/09 05:41:20;;;;;;;2.67;1.90;;;1.40;99.90;;;;;;5026713;28;20203;-51
2024/02/09 05:43:52;;;;;;;1.80;1.70;;;1.30;99.90;;;;;;5045091;28;20767;-56
2024/02/09 05:46:19;;;;;;;2.60;1.80;;;1.30;99.90;;;;;;5027020;28;23165;-53
2024/02/09 05:48:47;;;;;;;2.30;2.10;;;1.30;99.90;;;;;;5037077;28;20203;-56
2024/02/09 05:51:15;;;;;;;2.40;2.20;;;1.30;99.90;;;;;;5034951;28;20210;-48
2024/02/09 05:53:46;;;;;;;2.23;2.03;;;1.30;99.90;;;;;;5014425;28;20636;-52
2024/02/09 05:56:15;;;;;;;1.70;1.60;;;1.30;99.90;;;;;;5028750;28;20238;-54
2024/02/09 05:58:42;;;;;;;1.90;1.80;;;1.30;99.90;;;;;;5034157;28;20980;-53
2024/02/09 06:01:09;;;;;;;2.33;1.93;;;1.30;99.90;;;;;;5023751;28;21741;-51
2024/02/09 06:03:38;;;;;;;2.00;1.90;;;1.30;99.90;;;;;;5024686;28;20243;-48
2024/02/09 06:06:05;;;;;;;2.30;2.10;;;1.30;99.90;;;;;;5031422;28;20200;-51
2024/02/09 06:08:33;;;;;;;2.50;2.30;;;1.30;99.90;;;;;;5015246;28;20674;-53
2024/02/09 06:11:03;;;;;;;2.73;2.23;;;1.40;99.90;;;;;;5033668;28;20286;-52
2024/02/09 06:13:30;;;;;;;2.83;2.30;;;1.40;99.90;;;;;;5025869;28;20226;-52
2024/02/09 06:15:58;;;;;;;2.10;2.00;;;1.40;99.90;;;;;;5035229;28;20725;-55
2024/02/09 06:18:25;;;;;;;2.83;2.20;;;1.40;99.90;;;;;;5028185;28;20203;-50
2024/02/09 06:20:53;;;;;;;2.20;2.00;;;1.40;99.90;;;;;;5039897;28;20210;-55
2024/02/09 06:23:20;;;;;;;4.33;2.27;;;1.40;99.90;;;;;;5020587;28;20227;-51
2024/02/09 06:25:49;;;;;;;2.20;2.00;;;1.40;99.90;;;;;;5024486;28;20207;-48
2024/02/09 06:28:17;;;;;;;2.10;1.90;;;1.40;99.90;;;;;;5032822;28;20206;-50
2024/02/09 06:30:47;;;;;;;3.63;2.07;;;1.40;99.90;;;;;;5015009;28;20200;-50
2024/02/09 06:33:15;;;;;;;2.37;2.17;;;1.40;99.90;;;;;;5026812;28;20218;-52
2024/02/09 06:35:42;;;;;;;3.73;2.50;;;1.40;99.90;;;;;;5029524;28;20203;-51
2024/02/09 06:38:08;;;;;;;2.70;2.50;;;1.40;99.90;;;;;;5041207;28;21058;-50
2024/02/09 06:40:35;;;;;;;2.30;2.10;;;1.40;99.90;;;;;;5013290;28;20219;-53
2024/02/09 06:43:02;;;;;;;3.00;2.70;;;1.40;99.90;;;;;;5028252;28;20304;-50
2024/02/09 06:45:35;;;;;;;3.40;2.57;;;1.40;99.90;;;;;;5028252;28;20199;-51
2024/02/09 06:48:02;;;;;;;2.57;2.37;;;1.40;99.90;;;;;;5024744;28;20211;-54
2024/02/09 06:50:29;;;;;;;2.50;2.30;;;1.40;99.90;;;;;;5027259;28;20195;-52
2024/02/09 06:53:00;;;;;;;2.67;2.47;;;1.30;99.90;;;;;;5027397;28;20227;-55
2024/02/09 06:55:27;;;;;;;2.67;2.27;;;1.40;99.90;;;;;;5009890;28;20242;-49
2024/02/09 06:57:54;;;;;;;3.03;2.83;;;1.40;99.90;;;;;;5039555;28;20200;-57
2024/02/09 07:00:25;;;;;;;2.83;2.63;;;1.40;99.90;;;;;;5028369;28;20211;-52
2024/02/09 07:03:03;;;;;;;2.30;2.10;;;1.40;99.90;;;;;;5021896;28;21151;-52
2024/02/09 07:05:51;;;;;;;2.37;2.03;;;1.40;99.90;;;;;;5025532;28;20195;-55
2024/02/09 07:08:39;;;;;;;2.97;2.70;;;1.40;99.90;;;;;;5039957;28;20200;-56
2024/02/09 07:11:25;;;;;;;2.90;2.60;;;1.40;99.90;;;;;;5022057;28;20203;-51
2024/02/09 07:17:11;;;;;;;3.63;3.03;;;1.40;99.90;;;;;;5052616;28;20534;-51
2024/02/09 07:19:44;;;;;;;3.57;2.90;;;1.40;99.90;;;;;;5041160;28;20202;-53
2024/02/09 07:22:12;;;;;;;2.50;2.30;;;1.40;99.90;;;;;;5053295;28;20222;-48
2024/02/09 07:24:39;;;;;;;3.17;2.67;;;1.40;99.90;;;;;;5035560;28;20246;-58
2024/02/09 07:27:15;;;;;;;3.10;2.80;;;1.40;99.90;;;;;;5011669;28;20290;-52
2024/02/09 07:29:59;;;;;;;3.73;3.00;;;1.40;99.90;;;;;;5026312;28;20199;-49
2024/02/09 07:32:32;;;;;;;2.70;2.47;;;1.40;99.90;;;;;;5025332;28;20697;-57
2024/02/09 07:35:01;;;;;;;2.67;2.47;;;1.40;99.90;;;;;;5021181;28;20709;-53
2024/02/09 07:37:28;;;;;;;3.13;2.80;;;1.40;99.90;;;;;;5026398;28;20207;-55
2024/02/09 07:39:55;;;;;;;2.73;2.53;;;1.50;99.90;;;;;;5037600;28;20196;-52
2024/02/09 07:42:24;;;;;;;3.73;2.80;;;1.50;99.90;;;;;;5000043;28;20227;-57
2024/02/09 07:44:51;;;;;;;2.80;2.50;;;1.40;99.90;;;;;;5025691;28;20904;-51
2024/02/09 07:47:21;;;;;;;3.77;3.33;;;1.50;99.90;;;;;;5034388;28;20208;-57
2024/02/09 07:49:49;;;;;;;2.80;2.57;;;1.50;99.90;;;;;;5022799;28;20207;-50
2024/02/09 07:52:16;;;;;;;3.20;2.90;;;1.40;99.90;;;;;;5016762;28;20223;-57
2024/02/09 07:54:43;;;;;;;2.87;2.57;;;1.50;99.90;;;;;;5035639;28;20261;-50
2024/02/09 07:57:13;;;;;;;2.63;2.43;;;1.50;99.90;;;;;;4998569;28;20210;-56
2024/02/09 07:59:42;;;;;;;2.67;2.47;;;1.50;99.90;;;;;;5022786;28;20211;-57
2024/02/09 08:02:10;;;;;;;2.60;2.40;;;1.50;99.90;;;;;;5025659;28;20199;-55
2024/02/09 08:04:39;;;;;;;3.53;2.77;;;1.50;99.90;;;;;;5014886;28;20233;-55
2024/02/09 08:07:09;;;;;;;3.20;2.90;;;1.50;99.90;;;;;;5025424;28;21153;-49
2024/02/09 08:09:37;;;;;;;2.53;2.33;;;1.50;99.90;;;;;;5034631;28;20606;-58
2024/02/09 08:12:07;;;;;;;4.10;2.47;;;1.50;99.90;;;;;;4997736;28;20222;-51
2024/02/09 08:14:37;;;;;;;2.37;2.17;;;1.60;99.90;;;;;;5037346;28;20289;-53
2024/02/09 08:17:09;;;;;;;2.63;2.43;;;1.60;99.90;;;;;;5019919;28;20342;-47
2024/02/09 08:19:37;;;;;;;3.10;2.40;;;1.50;99.90;;;;;;5030442;28;20204;-56
2024/02/09 08:22:04;;;;;;;2.57;2.37;;;1.60;99.90;;;;;;5016514;28;20200;-50
2024/02/09 08:24:33;;;;;;;2.33;2.13;;;1.60;99.90;;;;;;5029748;28;20214;-53
2024/02/09 08:27:01;;;;;;;2.80;2.50;;;1.60;99.90;;;;;;5027404;28;20177;-57
2024/02/09 08:29:29;;;;;;;3.27;2.30;;;1.60;99.90;;;;;;4996987;28;20204;-51
2024/02/09 08:31:58;;;;;;;3.20;2.80;;;1.60;99.90;;;;;;5007183;28;20885;-55
2024/02/09 08:34:26;;;;;;;2.70;2.50;;;1.60;99.90;;;;;;5014249;28;20893;-53
2024/02/09 08:36:54;;;;;;;2.83;2.50;;;1.60;99.90;;;;;;5013326;28;20706;-56
2024/02/09 08:39:23;;;;;;;2.20;2.00;;;1.60;99.90;;;;;;5018316;28;20310;-47
2024/02/09 08:41:52;;;;;;;3.10;2.40;;;1.60;99.90;;;;;;5017198;28;20188;-59
2024/02/09 08:44:20;;;;;;;2.13;1.93;;;1.70;99.90;;;;;;4997238;28;20668;-51
2024/02/09 08:46:52;;;;;;;2.83;2.30;;;1.60;99.90;;;;;;5008627;28;20677;-56
2024/02/09 08:49:19;;;;;;;2.90;2.60;;;1.70;99.90;;;;;;5016916;28;20801;-53
2024/02/09 08:51:50;;;;;;;3.03;2.40;;;1.70;99.90;;;;;;5010936;28;20209;-58
2024/02/09 08:54:17;;;;;;;2.60;2.40;;;1.70;99.90;;;;;;5007337;28;20669;-54
2024/02/09 08:56:44;;;;;;;2.33;2.10;;;1.70;99.90;;;;;;5018520;28;20310;-58
2024/02/09 08:59:12;;;;;;;2.60;2.30;;;1.70;99.90;;;;;;4993769;28;20310;-49
2024/02/09 09:01:39;;;;;;;2.50;2.30;;;1.70;99.90;;;;;;5013098;28;20242;-56
2024/02/09 09:04:06;;;;;;;2.27;2.13;;;1.70;99.90;;;;;;5010738;28;20220;-49
2024/02/09 09:06:33;;;;;;;1.93;1.80;;;1.70;99.90;;;;;;4989166;28;20200;-55
2024/02/09 09:09:01;;;;;;;2.00;1.90;;;1.70;99.90;;;;;;5013144;28;20209;-49
2024/02/09 09:11:27;;;;;;;2.40;2.20;;;1.70;99.90;;;;;;5018068;28;20251;-54
2024/02/09 09:13:54;;;;;;;2.50;2.30;;;1.70;99.90;;;;;;5018389;28;20978;-52
2024/02/09 09:16:23;;;;;;;3.63;2.40;;;1.70;99.90;;;;;;4999687;28;20216;-51
2024/02/09 09:18:50;;;;;;;3.13;2.47;;;1.70;99.90;;;;;;5003581;28;20375;-49
2024/02/09 09:21:17;;;;;;;2.90;2.10;;;1.70;99.90;;;;;;5015919;28;20210;-50
2024/02/09 09:23:44;;;;;;;2.20;2.00;;;1.70;99.90;;;;;;5003959;28;20223;-48
2024/02/09 09:26:11;;;;;;;2.37;2.17;;;1.80;99.90;;;;;;5022711;28;20204;-48
2024/02/09 09:28:37;;;;;;;2.30;2.10;;;1.70;99.90;;;;;;5010068;28;20237;-54
2024/02/09 09:31:05;;;;;;;2.10;1.90;;;1.80;99.90;;;;;;4995255;28;20413;-51
2024/02/09 09:33:33;;;;;;;2.00;1.80;;;1.70;99.90;;;;;;5009589;28;20705;-56
2024/02/09 09:36:00;;;;;;;1.93;1.83;;;1.70;99.90;;;;;;5015570;28;20964;-48
2024/02/09 09:38:27;;;;;;;2.00;1.90;;;1.70;99.90;;;;;;5004816;28;20291;-55
2024/02/09 09:40:55;;;;;;;2.30;2.00;;;1.80;99.90;;;;;;5013879;28;20215;-49
2024/02/09 09:43:22;;;;;;;1.90;1.80;;;1.80;99.90;;;;;;5023343;28;20216;-52
2024/02/09 09:45:56;;;;;;;2.40;1.80;;;1.70;99.90;;;;;;4993653;28;20263;-50
2024/02/09 09:48:24;;;;;;;1.93;1.77;;;1.80;99.90;;;;;;5005763;28;20579;-54
2024/02/09 09:50:54;;;;;;;1.53;1.43;;;1.80;99.90;;;;;;5009873;28;20196;-54
2024/02/09 09:53:26;;;;;;;2.50;1.60;;;1.80;99.90;;;;;;5012310;28;20305;-48
2024/02/09 09:55:54;;;;;;;1.70;1.60;;;1.80;99.90;;;;;;5012500;28;20231;-54
2024/02/09 09:58:22;;;;;;;2.27;1.70;;;1.80;99.90;;;;;;5019577;28;20300;-51
2024/02/09 10:00:50;;;;;;;3.00;1.90;;;1.80;99.90;;;;;;4991016;28;20302;-54
2024/02/09 10:03:18;;;;;;;2.03;1.70;;;1.90;99.90;;;;;;5012787;28;20856;-50
2024/02/09 10:05:45;;;;;;;1.50;1.40;;;1.80;99.90;;;;;;5001091;28;20200;-52
2024/02/09 10:08:14;;;;;;;3.20;1.50;;;1.80;99.90;;;;;;5011050;28;20198;-57
2024/02/09 10:10:41;;;;;;;2.13;1.77;;;1.80;99.90;;;;;;5012773;28;20232;-52
2024/02/09 10:13:11;;;;;;;2.00;1.60;;;1.80;99.90;;;;;;5008906;28;20238;-54
2024/02/09 10:15:38;;;;;;;1.40;1.30;;;1.80;99.90;;;;;;5016677;28;20196;-51
2024/02/09 10:18:10;;;;;;;1.90;1.50;;;1.90;99.90;;;;;;4989099;28;20293;-55
2024/02/09 10:20:36;;;;;;;2.57;1.70;;;1.80;99.90;;;;;;5008574;28;20215;-52
2024/02/09 10:23:04;;;;;;;1.57;1.47;;;1.80;99.90;;;;;;5014139;28;20223;-56
2024/02/09 10:25:33;;;;;;;2.43;1.50;;;1.90;99.90;;;;;;5004004;28;20315;-51
2024/02/09 10:28:00;;;;;;;1.90;1.67;;;1.90;99.90;;;;;;5019806;28;20196;-56
2024/02/09 10:30:29;;;;;;;1.53;1.43;;;1.90;99.90;;;;;;5021355;28;20215;-48
2024/02/09 10:32:56;;;;;;;3.37;1.90;;;2.00;99.90;;;;;;4992083;28;20686;-53
2024/02/09 10:35:23;;;;;;;1.50;1.40;;;2.00;99.90;;;;;;4997928;28;20227;-51
2024/02/09 10:37:50;;;;;;;1.40;1.30;;;2.00;99.90;;;;;;5019561;28;20223;-53
2024/02/09 10:40:18;;;;;;;1.30;1.20;;;2.00;99.90;;;;;;5005340;28;20262;-58
2024/02/09 10:42:48;;;;;;;1.83;1.17;;;2.00;99.90;;;;;;5013587;28;20204;-47
2024/02/09 10:45:15;;;;;;;1.60;1.50;;;2.00;99.90;;;;;;5007326;28;20208;-55
2024/02/09 10:47:43;;;;;;;1.20;1.10;;;2.00;99.90;;;;;;4993917;28;20223;-49
2024/02/09 10:50:12;;;;;;;1.50;1.37;;;2.00;99.90;;;;;;5011175;28;20756;-56
2024/02/09 10:52:44;;;;;;;1.80;1.40;;;2.00;99.90;;;;;;5005090;28;20667;-49
2024/02/09 10:55:13;;;;;;;1.47;1.37;;;2.00;99.90;;;;;;4990807;28;20227;-52
2024/02/09 10:57:42;;;;;;;1.47;1.30;;;2.10;99.90;;;;;;5010221;28;20223;-51
2024/02/09 11:00:13;;;;;;;1.30;1.20;;;2.10;99.90;;;;;;5014162;28;20823;-55
2024/02/09 11:02:43;;;;;;;1.40;1.30;;;2.00;99.90;;;;;;5014210;28;20207;-50
2024/02/09 11:05:11;;;;;;;1.30;1.20;;;2.00;99.90;;;;;;4987485;28;20235;-49
2024/02/09 11:07:39;;;;;;;2.00;1.20;;;2.00;99.90;;;;;;4997237;28;20290;-52
2024/02/09 11:10:07;;;;;;;1.37;1.27;;;2.10;99.90;;;;;;5002216;28;20201;-53
2024/02/09 11:12:34;;;;;;;0.80;0.80;;;2.00;99.90;;;;;;5007063;28;20270;-52
2024/02/09 11:15:13;;;;;;;1.43;1.33;;;2.10;99.90;;;;;;5008805;28;20228;-52
2024/02/09 11:17:44;;;;;;;1.20;1.10;;;2.10;99.90;;;;;;5011467;28;20299;-52
2024/02/09 11:20:12;;;;;;;0.87;0.83;;;2.00;99.90;;;;;;4990655;28;20307;-54
2024/02/09 11:22:40;;;;;;;1.27;1.20;;;2.10;99.90;;;;;;5003401;28;20338;-53
2024/02/09 11:25:09;;;;;;;1.30;1.20;;;2.00;99.90;;;;;;5010991;28;20947;-53
2024/02/09 11:27:36;;;;;;;1.63;1.30;;;2.10;99.90;;;;;;4994388;28;20196;-52
2024/02/09 11:30:04;;;;;;;1.47;1.20;;;2.10;99.90;;;;;;5011134;28;20261;-52
2024/02/09 11:32:33;;;;;;;2.10;1.70;;;2.10;99.90;;;;;;5012814;28;20277;-55
2024/02/09 11:35:00;;;;;;;1.10;1.10;;;2.10;99.90;;;;;;4987143;28;20219;-51
2024/02/09 11:37:29;;;;;;;1.20;1.10;;;2.10;99.90;;;;;;5007657;28;20256;-54
2024/02/09 11:39:56;;;;;;;1.40;1.20;;;2.20;99.90;;;;;;5011428;28;20223;-51
2024/02/09 11:42:22;;;;;;;1.63;0.90;;;2.10;99.90;;;;;;5000012;28;20284;-51
2024/02/09 11:44:49;;;;;;;1.23;1.10;;;2.20;99.90;;;;;;5002978;28;20223;-53
2024/02/09 11:47:18;;;;;;;0.97;0.90;;;2.20;99.90;;;;;;5016664;28;20254;-54
2024/02/09 11:49:47;;;;;;;1.40;1.30;;;2.20;99.90;;;;;;4978769;28;20235;-55
2024/02/09 11:52:14;;;;;;;1.10;1.10;;;2.20;99.90;;;;;;5019854;28;20204;-51
2024/02/09 11:54:44;;;;;;;1.10;1.00;;;2.20;99.90;;;;;;5006427;28;20283;-53
2024/02/09 11:57:11;;;;;;;1.20;1.10;;;2.20;99.90;;;;;;5017266;28;20228;-52
2024/02/09 11:59:37;;;;;;;1.20;1.10;;;2.20;99.90;;;;;;5010612;28;20262;-55
2024/02/09 12:02:05;;;;;;;0.93;0.90;;;2.20;99.90;;;;;;5010345;28;20204;-52
2024/02/09 12:04:32;;;;;;;1.10;1.00;;;2.20;99.90;;;;;;5012597;28;20383;-52
2024/02/09 12:07:00;;;;;;;1.40;1.00;;;2.20;99.90;;;;;;4994825;28;20828;-53
2024/02/09 12:09:30;;;;;;;2.07;1.33;;;2.20;99.90;;;;;;5010347;28;20236;-55
2024/02/09 12:11:56;;;;;;;1.40;1.30;;;2.20;99.90;;;;;;5013776;28;20196;-54
2024/02/09 12:14:23;;;;;;;1.40;1.30;;;2.20;99.90;;;;;;5010546;28;20243;-53
2024/02/09 12:16:51;;;;;;;1.40;1.30;;;2.30;99.90;;;;;;4992746;28;20216;-53
2024/02/09 12:19:18;;;;;;;0.60;0.60;;;2.20;99.90;;;;;;5012155;28;20200;-55
2024/02/09 12:21:47;;;;;;;1.03;0.73;;;2.20;99.90;;;;;;4994090;28;20209;-54
2024/02/09 12:24:15;;;;;;;0.83;0.83;;;2.20;99.90;;;;;;5008120;28;20695;-52
2024/02/09 12:26:42;;;;;;;0.80;0.80;;;2.30;99.90;;;;;;5019925;28;20250;-51
2024/02/09 12:29:12;;;;;;;1.20;1.10;;;2.20;99.90;;;;;;4993990;28;20204;-57
2024/02/09 12:31:41;;;;;;;1.10;0.90;;;2.20;99.90;;;;;;5003882;28;20591;-55
2024/02/09 12:34:08;;;;;;;1.03;0.70;;;2.30;99.90;;;;;;4996406;28;20250;-54
2024/02/09 12:36:36;;;;;;;0.80;0.80;;;2.30;99.90;;;;;;4981717;28;20223;-53
2024/02/09 12:39:05;;;;;;;0.93;0.93;;;2.30;99.90;;;;;;5015251;28;20262;-54
2024/02/09 12:41:36;;;;;;;0.80;0.80;;;2.30;99.90;;;;;;5017381;28;20200;-53
2024/02/09 12:44:04;;;;;;;0.70;0.70;;;2.30;99.90;;;;;;5011592;28;20220;-55
2024/02/09 12:46:32;;;;;;;1.67;1.00;;;2.30;99.90;;;;;;5000121;28;20208;-55
2024/02/09 12:49:00;;;;;;;0.80;0.80;;;2.40;99.90;;;;;;5009997;28;20212;-55
2024/02/09 12:51:29;;;;;;;1.30;1.20;;;2.40;99.90;;;;;;4985869;28;20208;-56
2024/02/09 12:53:57;;;;;;;1.00;0.80;;;2.40;99.90;;;;;;5010810;28;20220;-55
2024/02/09 12:56:24;;;;;;;1.27;1.13;;;2.40;99.90;;;;;;5022619;28;20751;-54
2024/02/09 12:58:52;;;;;;;1.17;1.07;;;2.40;99.90;;;;;;5018049;28;20200;-55
2024/02/09 13:01:20;;;;;;;0.70;0.70;;;2.40;99.90;;;;;;5014772;28;20215;-56
2024/02/09 13:03:46;;;;;;;0.70;0.70;;;2.50;99.90;;;;;;5010129;28;20220;-49
2024/02/09 13:06:14;;;;;;;1.60;1.10;;;2.40;99.90;;;;;;5007585;28;20643;-57
2024/02/09 13:08:41;;;;;;;1.20;1.10;;;2.40;99.90;;;;;;4982234;28;20232;-55
2024/02/09 13:11:08;;;;;;;1.00;1.00;;;2.40;99.90;;;;;;5008346;28;20576;-54
2024/02/09 13:13:36;;;;;;;1.13;1.03;;;2.40;99.90;;;;;;5008143;28;20251;-56
2024/02/09 13:16:06;;;;;;;1.30;1.20;;;2.40;99.90;;;;;;5016846;28;20814;-55
2024/02/09 13:18:33;;;;;;;1.10;1.00;;;2.50;99.90;;;;;;5000802;28;20329;-55
2024/02/09 13:21:00;;;;;;;1.00;1.00;;;2.40;99.90;;;;;;5008056;28;20291;-56
2024/02/09 13:23:28;;;;;;;0.80;0.80;;;2.50;99.90;;;;;;4990173;28;20971;-57
2024/02/09 13:25:57;;;;;;;1.00;0.70;;;2.50;99.90;;;;;;5013781;28;20208;-57
2024/02/09 13:28:23;;;;;;;1.33;1.23;;;2.50;99.90;;;;;;5007391;28;20197;-53
2024/02/09 13:30:51;;;;;;;0.93;0.93;;;2.50;99.90;;;;;;5018886;28;20232;-57
2024/02/09 13:33:20;;;;;;;0.90;0.90;;;2.50;99.90;;;;;;5006707;28;20319;-57
2024/02/09 13:35:47;;;;;;;1.20;1.10;;;2.60;99.90;;;;;;5009289;28;20671;-56
2024/02/09 13:38:14;;;;;;;1.10;0.90;;;2.50;99.90;;;;;;4980548;28;20298;-56
2024/02/09 13:40:42;;;;;;;1.53;0.93;;;2.60;99.90;;;;;;5018635;28;20658;-55
2024/02/09 13:43:09;;;;;;;1.10;1.00;;;2.60;99.90;;;;;;5011615;28;20212;-58
2024/02/09 13:45:36;;;;;;;1.00;0.93;;;2.60;99.90;;;;;;5023078;28;20200;-53
2024/02/09 13:48:04;;;;;;;1.00;1.00;;;2.60;99.90;;;;;;5008764;28;20207;-52
2024/02/09 13:50:35;;;;;;;1.23;1.13;;;2.60;99.90;;;;;;4999639;28;20200;-54
2024/02/09 13:53:01;;;;;;;1.23;1.10;;;2.60;99.90;;;;;;4990147;28;20590;-54
2024/02/09 13:55:29;;;;;;;1.30;1.20;;;2.60;99.90;;;;;;4999140;28;20200;-55
2024/02/09 13:57:56;;;;;;;2.00;1.23;;;2.60;99.90;;;;;;5006290;28;20763;-56
2024/02/09 14:00:24;;;;;;;1.10;1.00;;;2.60;99.90;;;;;;5016283;28;20188;-55
2024/02/09 14:02:50;;;;;;;1.30;1.20;;;2.60;99.90;;;;;;5012709;28;20292;-52
2024/02/09 14:05:18;;;;;;;1.40;1.30;;;2.60;99.90;;;;;;5007860;28;20566;-54
2024/02/09 14:07:46;;;;;;;1.03;1.03;;;2.70;99.90;;;;;;4996832;28;20326;-53
2024/02/09 14:10:13;;;;;;;1.57;1.30;;;2.70;99.90;;;;;;4980352;28;20212;-56
2024/02/09 14:12:40;;;;;;;1.57;0.90;;;2.60;99.90;;;;;;5011069;28;20208;-55
2024/02/09 14:15:10;;;;;;;1.60;1.50;;;2.70;99.90;;;;;;5014070;28;20207;-54
2024/02/09 14:17:38;;;;;;;1.20;1.00;;;2.70;99.90;;;;;;5019240;28;20223;-55
2024/02/09 14:20:06;;;;;;;1.27;1.13;;;2.70;99.90;;;;;;5009416;28;20748;-54
2024/02/09 14:22:34;;;;;;;2.13;1.07;;;2.70;99.90;;;;;;5003301;28;20209;-56
2024/02/09 14:25:02;;;;;;;1.40;1.30;;;2.70;99.90;;;;;;4982450;28;20317;-54
2024/02/09 14:27:30;;;;;;;1.10;1.10;;;2.70;99.90;;;;;;5018849;28;20200;-53
2024/02/09 14:29:58;;;;;;;1.10;1.10;;;2.70;99.90;;;;;;5010999;28;20289;-56
2024/02/09 14:32:25;;;;;;;1.20;1.10;;;2.70;99.90;;;;;;5018518;28;20195;-56
2024/02/09 14:34:52;;;;;;;2.07;1.37;;;2.70;99.90;;;;;;5011100;28;20220;-54
2024/02/09 14:37:21;;;;;;;1.20;1.10;;;2.80;99.90;;;;;;5009492;28;20281;-55
2024/02/09 14:39:48;;;;;;;1.30;1.20;;;2.80;99.90;;;;;;5009482;28;20203;-55
2024/02/09 14:42:16;;;;;;;1.30;1.20;;;2.70;99.90;;;;;;4994968;28;20210;-55
2024/02/09 14:44:46;;;;;;;1.53;1.43;;;2.70;99.90;;;;;;5013076;28;20230;-55
2024/02/09 14:47:13;;;;;;;1.47;1.37;;;2.80;99.90;;;;;;5015307;28;20188;-57
2024/02/09 14:49:40;;;;;;;1.73;1.33;;;2.70;99.90;;;;;;5011304;28;20206;-55
2024/02/09 14:52:07;;;;;;;1.57;1.47;;;2.80;99.90;;;;;;5016430;28;20203;-55